Time;durP1;ratioP1;P1;durP2;ratioP2;P2;SDS_P1;SDS_P2;PMS_P1;PMS_P2;Temp;Humidity;BMP_temperature;BMP_pressure;BME280_temperature;BME280_humidity;BME280_pressure;Samples;Min_cycle;Max_cycle;Signal;HPM_P1;HPM_P2
2023/02/13 00:00:16;;;;;;;11.63;8.07;;;;;;;7.35;100.00;102872.94;694739;28;1157;-66
2023/02/13 00:00:37;;;;;;;12.23;8.20;;;;;;;7.36;100.00;102871.22;695409;28;4283;-66
2023/02/13 00:00:58;;;;;;;12.43;8.45;;;;;;;7.34;100.00;102865.97;697871;28;995;-65
2023/02/13 00:01:18;;;;;;;11.90;7.95;;;;;;;7.37;100.00;102870.41;698078;28;1224;-66
2023/02/13 00:01:38;;;;;;;11.83;8.20;;;;;;;7.36;100.00;102868.63;696364;28;1127;-66
2023/02/13 00:01:59;;;;;;;12.48;8.50;;;;;;;7.32;100.00;102867.59;693724;28;1079;-66
2023/02/13 00:02:19;;;;;;;12.37;8.33;;;;;;;7.29;100.00;102870.06;694929;28;1218;-66
2023/02/13 00:02:40;;;;;;;12.05;7.78;;;;;;;7.24;100.00;102868.97;690979;28;1559;-66
2023/02/13 00:03:00;;;;;;;12.63;7.93;;;;;;;7.33;100.00;102875.47;692350;28;1448;-65
2023/02/13 00:03:21;;;;;;;11.82;8.07;;;;;;;7.31;100.00;102874.53;692108;28;4414;-66
2023/02/13 00:03:41;;;;;;;12.60;8.30;;;;;;;7.27;100.00;102863.91;692615;28;1051;-67
2023/02/13 00:04:03;;;;;;;12.88;8.45;;;;;;;7.23;100.00;102867.22;691935;28;1003;-66
2023/02/13 00:04:23;;;;;;;12.15;8.27;;;;;;;7.20;100.00;102867.97;695888;28;1142;-66
2023/02/13 00:04:44;;;;;;;11.90;8.40;;;;;;;7.21;100.00;102871.44;696430;28;2110;-66
2023/02/13 00:05:04;;;;;;;11.53;8.10;;;;;;;7.20;100.00;102864.44;696201;28;2129;-66
2023/02/13 00:05:25;;;;;;;13.18;8.50;;;;;;;7.21;100.00;102864.50;697680;28;1653;-66
2023/02/13 00:05:45;;;;;;;12.90;8.30;;;;;;;7.21;100.00;102874.03;698340;28;1169;-66
2023/02/13 00:06:06;;;;;;;13.23;8.30;;;;;;;7.19;100.00;102865.28;697338;28;1176;-66
2023/02/13 00:06:26;;;;;;;12.70;8.48;;;;;;;7.24;100.00;102863.75;693680;28;4306;-66
2023/02/13 00:06:47;;;;;;;12.50;8.30;;;;;;;7.21;100.00;102864.50;695297;28;1174;-66
2023/02/13 00:07:10;;;;;;;12.38;8.40;;;;;;;7.26;100.00;102868.22;695494;28;1029;-65
2023/02/13 00:07:31;;;;;;;12.88;8.38;;;;;;;7.22;100.00;102865.44;694915;28;1297;-66
2023/02/13 00:07:51;;;;;;;12.63;8.80;;;;;;;7.18;100.00;102863.50;695491;28;1139;-66
2023/02/13 00:08:11;;;;;;;12.87;9.13;;;;;;;7.21;100.00;102866.25;695472;28;1063;-66
2023/02/13 00:08:32;;;;;;;12.60;9.00;;;;;;;7.23;100.00;102862.00;695477;28;1292;-66
2023/02/13 00:08:52;;;;;;;13.10;8.70;;;;;;;7.21;100.00;102861.03;694782;28;1302;-65
2023/02/13 00:09:13;;;;;;;13.67;8.67;;;;;;;7.19;100.00;102862.69;694295;28;1007;-66
2023/02/13 00:09:34;;;;;;;12.68;8.80;;;;;;;7.17;100.00;102860.00;693077;28;4438;-66
2023/02/13 00:09:54;;;;;;;13.47;8.93;;;;;;;7.13;100.00;102859.00;694557;28;1310;-68
2023/02/13 00:10:15;;;;;;;13.25;8.95;;;;;;;7.18;100.00;102855.72;695593;28;1121;-66
2023/02/13 00:10:35;;;;;;;12.93;9.13;;;;;;;7.29;100.00;102862.25;695097;28;1209;-66
2023/02/13 00:10:56;;;;;;;12.80;9.20;;;;;;;7.22;100.00;102855.03;693164;28;1328;-66
2023/02/13 00:11:17;;;;;;;12.90;8.70;;;;;;;7.25;100.00;102862.94;694749;28;906;-65
2023/02/13 00:11:37;;;;;;;13.03;8.40;;;;;;;7.23;100.00;102859.41;694762;28;1964;-66
2023/02/13 00:11:57;;;;;;;12.80;9.00;;;;;;;7.18;100.00;102859.19;695013;28;968;-66
2023/02/13 00:12:18;;;;;;;13.67;9.33;;;;;;;7.17;100.00;102862.59;695296;28;1256;-66
2023/02/13 00:12:38;;;;;;;13.48;8.77;;;;;;;7.13;100.00;102866.78;694684;28;4457;-67
2023/02/13 00:12:59;;;;;;;13.03;8.83;;;;;;;7.13;100.00;102865.88;694554;28;1154;-65
2023/02/13 00:13:19;;;;;;;13.65;9.27;;;;;;;7.18;100.00;102859.19;694573;28;1201;-65
2023/02/13 00:13:40;;;;;;;13.67;9.43;;;;;;;7.16;100.00;102863.44;694846;28;1276;-66
2023/02/13 00:14:01;;;;;;;13.55;9.13;;;;;;;7.14;100.00;102863.38;694442;28;1534;-66
2023/02/13 00:14:21;;;;;;;14.00;9.20;;;;;;;7.14;100.00;102862.47;694039;28;1329;-67
2023/02/13 00:14:41;;;;;;;13.90;8.80;;;;;;;7.23;100.00;102854.22;694774;28;1135;-66
2023/02/13 00:15:03;;;;;;;13.18;8.65;;;;;;;7.19;100.00;102860.09;692267;28;991;-65
2023/02/13 00:15:23;;;;;;;13.40;8.66;;;;;;;7.18;100.00;102863.50;691126;28;4385;-66
2023/02/13 00:15:44;;;;;;;13.33;8.70;;;;;;;7.15;100.00;102853.84;692233;28;1123;-66
2023/02/13 00:16:04;;;;;;;14.13;9.10;;;;;;;7.20;100.00;102861.84;695107;28;1432;-66
2023/02/13 00:16:25;;;;;;;13.02;8.85;;;;;;;7.20;100.00;102860.16;695048;28;1139;-66
2023/02/13 00:16:45;;;;;;;13.13;9.03;;;;;;;7.24;100.00;102858.56;695083;28;1181;-65
2023/02/13 00:17:05;;;;;;;12.82;8.75;;;;;;;7.19;100.00;102858.38;694388;28;1259;-67
2023/02/13 00:17:26;;;;;;;13.67;8.60;;;;;;;7.25;100.00;102860.34;694533;28;1151;-66
2023/02/13 00:17:46;;;;;;;13.27;8.52;;;;;;;7.21;100.00;102861.91;694427;28;994;-65
2023/02/13 00:18:07;;;;;;;13.80;8.70;;;;;;;7.20;100.00;102854.03;695256;28;1067;-65
2023/02/13 00:18:29;;;;;;;14.10;9.02;;;;;;;7.19;100.00;102860.09;693823;28;4378;-66
2023/02/13 00:18:49;;;;;;;13.98;9.05;;;;;;;7.20;100.00;102854.03;690249;28;1222;-66
2023/02/13 00:19:10;;;;;;;13.63;9.00;;;;;;;7.16;100.00;102853.91;689556;28;1031;-66
2023/02/13 00:19:30;;;;;;;13.32;9.02;;;;;;;7.14;100.00;102858.19;690133;28;1304;-66
2023/02/13 00:19:51;;;;;;;13.40;9.17;;;;;;;7.13;100.00;102851.19;690596;28;1159;-67
2023/02/13 00:20:11;;;;;;;13.57;9.10;;;;;;;7.15;100.00;102857.34;692353;28;5116;-66
2023/02/13 00:20:32;;;;;;;13.20;8.73;;;;;;;7.16;100.00;102859.13;692735;28;1150;-66
2023/02/13 00:21:00;;;;;;;13.23;8.53;;;;;;;7.16;100.00;102856.50;691894;28;1202;-66
2023/02/13 00:21:20;;;;;;;12.90;8.48;;;;;;;7.12;100.00;102859.81;693000;28;4620;-66
2023/02/13 00:21:40;;;;;;;13.38;9.02;;;;;;;7.23;100.00;102851.59;694160;28;1201;-66
2023/02/13 00:22:01;;;;;;;13.93;9.23;;;;;;;7.22;100.00;102861.09;695122;28;1164;-66
2023/02/13 00:22:21;;;;;;;14.15;9.23;;;;;;;7.20;100.00;102861.84;695513;28;1220;-67
2023/02/13 00:22:41;;;;;;;14.03;8.87;;;;;;;7.18;100.00;102853.97;695014;28;1282;-66
2023/02/13 00:23:02;;;;;;;12.87;8.83;;;;;;;7.15;100.00;102856.44;692746;28;1400;-66
2023/02/13 00:23:22;;;;;;;13.63;9.05;;;;;;;7.13;100.00;102855.47;692551;28;1162;-66
2023/02/13 00:23:43;;;;;;;13.67;9.03;;;;;;;7.15;100.00;102849.53;690051;28;1206;-66
2023/02/13 00:24:03;;;;;;;13.68;9.05;;;;;;;7.12;100.00;102857.19;687079;28;1038;-66
2023/02/13 00:24:24;;;;;;;13.83;9.03;;;;;;;7.11;100.00;102854.53;687466;28;4325;-66
2023/02/13 00:24:44;;;;;;;14.20;9.40;;;;;;;7.10;100.00;102860.56;690310;28;1231;-66
2023/02/13 00:25:06;;;;;;;13.90;9.13;;;;;;;7.09;100.00;102853.56;690468;28;1017;-66
2023/02/13 00:25:27;;;;;;;13.73;9.05;;;;;;;7.16;100.00;102853.03;689683;28;1338;-66
2023/02/13 00:25:47;;;;;;;13.55;8.82;;;;;;;7.17;100.00;102854.78;690416;28;1204;-65
2023/02/13 00:26:11;;;;;;;12.87;8.77;;;;;;;7.13;100.00;102848.59;691866;28;1009;-67
2023/02/13 00:26:35;;;;;;;12.52;8.68;;;;;;;7.11;100.00;102854.53;691759;28;1258;-66
2023/02/13 00:26:55;;;;;;;13.17;9.20;;;;;;;7.11;100.00;102858.00;689062;28;1376;-66
2023/02/13 00:27:16;;;;;;;14.02;9.05;;;;;;;7.08;100.00;102852.69;691620;28;1234;-67
2023/02/13 00:27:36;;;;;;;14.27;9.20;;;;;;;7.09;100.00;102849.25;689027;28;4298;-66
2023/02/13 00:27:56;;;;;;;13.52;9.18;;;;;;;7.16;100.00;102855.63;687056;28;1425;-66
2023/02/13 00:28:17;;;;;;;14.23;9.40;;;;;;;7.17;100.00;102849.59;687635;28;1422;-66
2023/02/13 00:28:37;;;;;;;14.98;9.32;;;;;;;7.14;100.00;102847.78;690359;28;1250;-66
2023/02/13 00:28:58;;;;;;;15.83;9.93;;;;;;;7.18;100.00;102850.50;692019;28;1408;-66
2023/02/13 00:29:18;;;;;;;14.35;9.40;;;;;;;7.24;100.00;102850.75;692980;28;1266;-66
2023/02/13 00:29:39;;;;;;;13.47;8.73;;;;;;;7.21;100.00;102853.22;692378;28;1439;-66
2023/02/13 00:29:59;;;;;;;13.63;9.13;;;;;;;7.16;100.00;102853.91;692538;28;1414;-65
2023/02/13 00:30:20;;;;;;;14.10;9.47;;;;;;;7.14;100.00;102850.38;690620;28;4405;-67
2023/02/13 00:30:40;;;;;;;14.27;9.52;;;;;;;7.12;100.00;102851.13;692195;28;1190;-66
2023/02/13 00:31:06;;;;;;;14.82;9.40;;;;;;;7.09;100.00;102854.47;692092;28;1122;-66
2023/02/13 00:31:26;;;;;;;15.07;9.50;;;;;;;7.11;100.00;102851.94;692408;28;1403;-65
2023/02/13 00:31:46;;;;;;;14.63;9.55;;;;;;;7.12;100.00;102856.31;688691;28;1920;-66
2023/02/13 00:32:08;;;;;;;14.60;9.60;;;;;;;7.10;100.00;102852.75;688867;28;1019;-67
2023/02/13 00:32:28;;;;;;;14.20;9.70;;;;;;;7.11;100.00;102851.94;689848;28;1234;-66
2023/02/13 00:32:49;;;;;;;13.55;9.00;;;;;;;7.13;100.00;102848.59;688956;28;1297;-65
2023/02/13 00:33:09;;;;;;;13.63;9.20;;;;;;;7.14;100.00;102852.97;689454;28;1054;-67
2023/02/13 00:33:29;;;;;;;14.02;9.27;;;;;;;7.27;100.00;102850.88;687825;28;4411;-65
2023/02/13 00:33:50;;;;;;;14.43;8.67;;;;;;;7.23;100.00;102849.00;688506;28;1522;-67
2023/02/13 00:34:10;;;;;;;13.53;8.50;;;;;;;7.29;100.00;102850.13;683552;28;1280;-65
2023/02/13 00:34:30;;;;;;;14.07;9.07;;;;;;;7.32;100.00;102847.69;686609;28;1289;-65
2023/02/13 00:34:51;;;;;;;15.10;9.40;;;;;;;7.31;100.00;102845.00;686155;28;1201;-66
2023/02/13 00:35:11;;;;;;;13.70;9.07;;;;;;;7.30;100.00;102851.03;685873;28;1073;-66
2023/02/13 00:35:32;;;;;;;13.83;9.37;;;;;;;7.26;100.00;102846.53;683239;28;1325;-66
2023/02/13 00:36:04;;;;;;;13.98;9.50;;;;;;;7.29;100.00;102846.66;686458;28;1342;-66
2023/02/13 00:36:25;;;;;;;13.60;8.93;;;;;;;7.24;100.00;102849.06;688975;28;4309;-66
2023/02/13 00:36:46;;;;;;;13.60;8.82;;;;;;;7.21;100.00;102848.03;689629;28;1202;-65
2023/02/13 00:37:06;;;;;;;14.20;8.73;;;;;;;7.19;100.00;102849.69;688536;28;1174;-66
2023/02/13 00:37:26;;;;;;;14.23;8.90;;;;;;;7.22;100.00;102842.00;692828;28;1178;-66
2023/02/13 00:37:47;;;;;;;14.10;9.30;;;;;;;7.24;100.00;102853.34;692398;28;1151;-66
2023/02/13 00:38:08;;;;;;;14.27;9.45;;;;;;;7.19;100.00;102844.47;692496;28;1113;-65
2023/02/13 00:38:29;;;;;;;14.85;9.70;;;;;;;7.14;100.00;102847.78;691977;28;1293;-65
2023/02/13 00:38:50;;;;;;;13.95;9.15;;;;;;;7.18;100.00;102847.91;692246;28;1213;-66
2023/02/13 00:39:11;;;;;;;13.53;8.80;;;;;;;7.23;100.00;102847.28;691318;28;1147;-65
2023/02/13 00:39:31;;;;;;;14.50;9.02;;;;;;;7.22;100.00;102847.22;691282;28;4701;-65
2023/02/13 00:39:52;;;;;;;13.97;9.07;;;;;;;7.19;100.00;102844.47;692442;28;1162;-65
2023/02/13 00:40:13;;;;;;;13.65;9.13;;;;;;;7.18;100.00;102840.97;691035;28;1054;-65
2023/02/13 00:40:33;;;;;;;13.63;9.40;;;;;;;7.29;100.00;102852.72;692252;28;1443;-66
2023/02/13 00:40:53;;;;;;;13.97;9.43;;;;;;;7.27;100.00;102843.06;691447;28;1163;-67
2023/02/13 00:41:16;;;;;;;14.90;9.30;;;;;;;7.23;100.00;102838.59;692300;28;1560;-66
2023/02/13 00:41:37;;;;;;;15.60;9.90;;;;;;;7.24;100.00;102842.94;693468;28;1167;-66
2023/02/13 00:41:57;;;;;;;15.10;9.70;;;;;;;7.18;100.00;102840.09;693049;28;1105;-65
2023/02/13 00:42:19;;;;;;;14.77;9.80;;;;;;;7.18;100.00;102838.38;694721;28;1178;-65
2023/02/13 00:42:39;;;;;;;14.38;9.48;;;;;;;7.20;100.00;102848.84;694682;28;4826;-66
2023/02/13 00:43:00;;;;;;;15.60;9.38;;;;;;;7.22;100.00;102835.09;694528;28;1184;-65
2023/02/13 00:43:20;;;;;;;14.87;9.27;;;;;;;7.23;100.00;102842.06;692263;28;1189;-65
2023/02/13 00:43:41;;;;;;;13.80;8.87;;;;;;;7.26;100.00;102843.94;692313;28;1142;-66
2023/02/13 00:44:01;;;;;;;14.65;9.48;;;;;;;7.29;100.00;102841.44;690148;28;1605;-65
2023/02/13 00:44:24;;;;;;;14.40;9.23;;;;;;;7.21;100.00;102837.63;691334;28;1597;-68
2023/02/13 00:44:44;;;;;;;14.27;9.07;;;;;;;7.17;100.00;102836.59;693297;28;1264;-65
2023/02/13 00:45:05;;;;;;;14.43;9.80;;;;;;;7.20;100.00;102834.13;693188;28;1042;-65
2023/02/13 00:45:25;;;;;;;14.98;9.90;;;;;;;7.26;100.00;102836.13;689707;28;4566;-66
2023/02/13 00:45:46;;;;;;;15.47;9.90;;;;;;;7.23;100.00;102836.00;686623;28;1167;-66
2023/02/13 00:46:06;;;;;;;15.18;9.52;;;;;;;7.18;100.00;102835.78;687925;28;1084;-65
2023/02/13 00:46:27;;;;;;;14.73;9.90;;;;;;;7.16;100.00;102838.31;692764;28;1214;-65
2023/02/13 00:46:47;;;;;;;13.68;9.30;;;;;;;7.22;100.00;102837.69;692780;28;1355;-66
2023/02/13 00:47:08;;;;;;;13.97;9.40;;;;;;;7.28;100.00;102834.47;693536;28;984;-66
2023/02/13 00:47:28;;;;;;;14.48;9.73;;;;;;;7.19;100.00;102834.97;692195;28;1224;-66
2023/02/13 00:47:49;;;;;;;14.63;9.98;;;;;;;7.21;100.00;102838.50;695441;28;1146;-65
2023/02/13 00:48:09;;;;;;;14.53;9.87;;;;;;;7.30;100.00;102831.09;694986;28;988;-66
2023/02/13 00:48:32;;;;;;;15.20;9.77;;;;;;;7.30;100.00;102830.22;694265;28;4514;-66
2023/02/13 00:48:52;;;;;;;14.55;9.43;;;;;;;7.29;100.00;102841.44;693146;28;1274;-65
2023/02/13 00:49:12;;;;;;;14.40;9.50;;;;;;;7.23;100.00;102836.88;692830;28;1293;-66
2023/02/13 00:49:33;;;;;;;14.17;9.30;;;;;;;7.19;100.00;102834.09;691361;28;1279;-66
2023/02/13 00:49:55;;;;;;;14.85;9.40;;;;;;;7.14;100.00;102832.16;688960;28;1661;-67
2023/02/13 00:50:16;;;;;;;15.20;9.60;;;;;;;7.22;100.00;102832.47;688384;28;1393;-65
2023/02/13 00:50:37;;;;;;;14.07;9.50;;;;;;;7.27;100.00;102832.66;688169;28;1368;-65
2023/02/13 00:50:57;;;;;;;13.67;9.67;;;;;;;7.21;100.00;102835.91;689038;28;1444;-65
2023/02/13 00:51:17;;;;;;;13.93;9.60;;;;;;;7.15;100.00;102836.53;688635;28;1253;-66
2023/02/13 00:51:38;;;;;;;14.77;9.80;;;;;;;7.12;100.00;102836.38;691414;28;4379;-66
2023/02/13 00:51:58;;;;;;;14.52;9.50;;;;;;;7.12;100.00;102833.78;690654;28;1582;-65
2023/02/13 00:52:19;;;;;;;14.67;9.83;;;;;;;7.09;100.00;102831.06;693270;28;1307;-66
2023/02/13 00:52:39;;;;;;;13.75;9.57;;;;;;;7.09;100.00;102832.75;694726;28;1216;-66
2023/02/13 00:52:59;;;;;;;15.10;9.60;;;;;;;7.10;100.00;102832.84;694371;28;1124;-65
2023/02/13 00:53:21;;;;;;;14.93;9.65;;;;;;;7.06;100.00;102830.94;694089;28;1428;-66
2023/02/13 00:53:41;;;;;;;14.80;10.02;;;;;;;7.06;100.00;102830.94;695561;28;1205;-66
2023/02/13 00:54:02;;;;;;;14.35;9.60;;;;;;;7.09;100.00;102832.75;695259;28;960;-65
2023/02/13 00:54:22;;;;;;;14.70;9.93;;;;;;;7.08;100.00;102831.88;694370;28;4440;-65
2023/02/13 00:54:43;;;;;;;14.07;9.38;;;;;;;7.09;100.00;102835.34;694942;28;1111;-66
2023/02/13 00:55:04;;;;;;;14.83;9.60;;;;;;;7.11;100.00;102832.00;694593;28;1051;-66
2023/02/13 00:55:24;;;;;;;14.18;9.30;;;;;;;7.07;100.00;102835.28;694133;28;1236;-65
2023/02/13 00:55:45;;;;;;;14.23;9.80;;;;;;;7.03;100.00;102828.16;693742;28;1181;-66
2023/02/13 00:56:06;;;;;;;15.13;9.80;;;;;;;7.07;100.00;102829.22;694859;28;1161;-65
2023/02/13 00:56:27;;;;;;;15.18;10.05;;;;;;;7.06;100.00;102828.34;689512;28;1222;-66
2023/02/13 00:56:48;;;;;;;14.37;9.90;;;;;;;7.15;100.00;102827.84;688967;28;1241;-64
2023/02/13 00:57:08;;;;;;;14.77;9.13;;;;;;;7.18;100.00;102821.88;689705;28;1142;-65
2023/02/13 00:57:30;;;;;;;14.17;9.20;;;;;;;7.12;100.00;102830.31;691407;28;4515;-66
2023/02/13 00:57:51;;;;;;;14.43;9.20;;;;;;;7.12;100.00;102835.50;690612;28;1270;-66
2023/02/13 00:58:11;;;;;;;13.48;9.00;;;;;;;7.21;100.00;102827.22;690666;28;1579;-66
2023/02/13 00:58:32;;;;;;;13.13;8.93;;;;;;;7.26;100.00;102836.13;692032;28;1349;-65
2023/02/13 00:58:52;;;;;;;13.25;8.85;;;;;;;7.22;100.00;102831.59;692071;28;1147;-65
2023/02/13 00:59:13;;;;;;;14.87;9.60;;;;;;;7.22;100.00;102824.69;692809;28;1062;-65
2023/02/13 00:59:33;;;;;;;13.80;9.27;;;;;;;7.29;100.00;102826.72;692773;28;1131;-65
2023/02/13 00:59:54;;;;;;;14.13;9.60;;;;;;;7.27;100.00;102827.47;690621;28;1742;-65
2023/02/13 01:00:15;;;;;;;14.60;9.40;;;;;;;7.23;100.00;102825.59;687319;28;1258;-66
2023/02/13 01:00:36;;;;;;;12.68;8.85;;;;;;;7.22;100.00;102829.88;689191;28;4591;-65
2023/02/13 01:00:58;;;;;;;14.25;9.27;;;;;;;7.20;100.00;102831.53;689489;28;980;-66
2023/02/13 01:01:19;;;;;;;14.97;9.37;;;;;;;7.15;100.00;102833.91;687537;28;1189;-65
2023/02/13 01:01:40;;;;;;;14.50;9.82;;;;;;;7.16;100.00;102830.50;687851;28;1450;-65
2023/02/13 01:02:00;;;;;;;13.20;9.30;;;;;;;7.21;100.00;102827.22;691417;28;1614;-66
2023/02/13 01:02:21;;;;;;;13.93;9.40;;;;;;;7.19;100.00;102828.88;695717;28;1250;-66
2023/02/13 01:02:41;;;;;;;14.38;9.63;;;;;;;7.15;100.00;102827.84;694560;28;1237;-66
2023/02/13 01:03:02;;;;;;;15.10;10.43;;;;;;;7.11;100.00;102834.59;690118;28;1340;-66
2023/02/13 01:03:23;;;;;;;14.57;9.93;;;;;;;7.15;100.00;102828.72;690435;28;4432;-66
2023/02/13 01:03:43;;;;;;;13.77;9.18;;;;;;;7.12;100.00;102827.72;688964;28;1158;-66
2023/02/13 01:04:03;;;;;;;14.20;9.77;;;;;;;7.13;100.00;102830.38;688697;28;1294;-66
2023/02/13 01:04:24;;;;;;;13.75;9.30;;;;;;;7.12;100.00;102831.19;687663;28;1674;-66
2023/02/13 01:04:44;;;;;;;13.77;9.60;;;;;;;7.09;100.00;102832.75;687389;28;1404;-66
2023/02/13 01:05:05;;;;;;;14.43;9.63;;;;;;;7.11;100.00;102824.19;689735;28;1298;-66
2023/02/13 01:05:27;;;;;;;15.00;9.50;;;;;;;7.09;100.00;102830.16;690731;28;1357;-66
2023/02/13 01:05:48;;;;;;;15.52;9.93;;;;;;;7.06;100.00;102828.34;692370;28;1325;-66
2023/02/13 01:06:08;;;;;;;14.82;9.80;;;;;;;7.13;100.00;102834.66;693074;28;1349;-66
2023/02/13 01:06:29;;;;;;;14.70;9.43;;;;;;;7.16;100.00;102825.31;694791;28;4575;-65
2023/02/13 01:06:49;;;;;;;14.13;9.10;;;;;;;7.16;100.00;102829.63;696777;28;1345;-66
2023/02/13 01:07:09;;;;;;;13.87;9.70;;;;;;;7.20;100.00;102830.63;697519;28;1264;-66
2023/02/13 01:07:30;;;;;;;14.13;9.13;;;;;;;7.23;100.00;102833.38;697972;28;1346;-65
2023/02/13 01:07:51;;;;;;;14.53;9.67;;;;;;;7.35;100.00;102828.69;697347;28;1229;-65
2023/02/13 01:08:13;;;;;;;14.65;9.45;;;;;;;7.24;100.00;102832.53;697604;28;1261;-65
2023/02/13 01:08:34;;;;;;;14.38;9.32;;;;;;;7.16;100.00;102833.09;697187;28;1491;-66
2023/02/13 01:08:54;;;;;;;14.80;9.45;;;;;;;7.10;100.00;102832.84;692954;28;1463;-65
2023/02/13 01:09:15;;;;;;;14.13;9.30;;;;;;;7.09;100.00;102833.66;691912;28;1143;-65
2023/02/13 01:09:35;;;;;;;15.15;10.02;;;;;;;7.03;100.00;102830.78;692372;28;4463;-67
2023/02/13 01:09:55;;;;;;;15.23;9.80;;;;;;;6.99;100.00;102828.84;693459;28;1258;-66
2023/02/13 01:10:16;;;;;;;15.43;9.65;;;;;;;6.99;100.00;102834.97;692497;28;1382;-65
2023/02/13 01:10:38;;;;;;;15.10;10.00;;;;;;;6.99;100.00;102834.06;693341;28;1292;-66
2023/02/13 01:10:59;;;;;;;14.63;10.10;;;;;;;6.97;100.00;102836.59;691578;28;1535;-66
2023/02/13 01:11:19;;;;;;;14.63;9.85;;;;;;;7.04;100.00;102829.97;692046;28;1464;-66
2023/02/13 01:11:39;;;;;;;14.33;9.70;;;;;;;7.03;100.00;102835.97;692055;28;1997;-65
2023/02/13 01:12:00;;;;;;;14.05;9.57;;;;;;;7.03;100.00;102832.50;689424;28;1468;-66
2023/02/13 01:12:20;;;;;;;15.37;9.90;;;;;;;7.03;100.00;102835.97;689476;28;4610;-65
2023/02/13 01:12:40;;;;;;;15.25;9.68;;;;;;;7.07;100.00;102835.28;690198;28;1076;-65
2023/02/13 01:13:01;;;;;;;14.03;9.23;;;;;;;7.01;100.00;102840.22;689707;28;1223;-66
2023/02/13 01:13:22;;;;;;;14.68;9.50;;;;;;;7.03;100.00;102832.50;687548;28;1379;-66
2023/02/13 01:13:42;;;;;;;14.50;9.60;;;;;;;7.01;100.00;102835.03;687272;28;1220;-65
2023/02/13 01:14:02;;;;;;;14.10;9.77;;;;;;;6.98;100.00;102837.50;687890;28;1637;-66
2023/02/13 01:14:23;;;;;;;14.63;9.70;;;;;;;7.00;100.00;102835.84;685753;28;1356;-65
2023/02/13 01:14:43;;;;;;;14.93;9.68;;;;;;;7.05;100.00;102834.34;686916;28;1204;-66
2023/02/13 01:15:04;;;;;;;14.10;9.90;;;;;;;7.02;100.00;102831.63;690750;28;1302;-66
2023/02/13 01:15:25;;;;;;;14.25;9.50;;;;;;;7.04;100.00;102834.28;693275;28;4422;-67
2023/02/13 01:15:47;;;;;;;15.60;9.77;;;;;;;7.03;100.00;102835.97;691602;28;1306;-66
2023/02/13 01:16:07;;;;;;;14.05;9.73;;;;;;;7.06;100.00;102833.53;692985;28;1381;-66
2023/02/13 01:16:28;;;;;;;13.23;9.10;;;;;;;7.01;100.00;102835.03;695276;28;939;-67
2023/02/13 01:16:49;;;;;;;13.32;9.02;;;;;;;6.98;100.00;102834.91;690419;28;1417;-66
2023/02/13 01:17:09;;;;;;;14.97;9.30;;;;;;;6.98;100.00;102835.78;690288;28;1368;-66
2023/02/13 01:17:30;;;;;;;15.18;9.75;;;;;;;7.01;100.00;102832.44;689867;28;1437;-66
2023/02/13 01:17:56;;;;;;;14.40;9.30;;;;;;;6.98;100.00;102833.19;692647;28;1209;-66
2023/02/13 01:18:19;;;;;;;14.18;9.70;;;;;;;6.94;100.00;102839.06;692646;28;1139;-66
2023/02/13 01:18:40;;;;;;;14.82;9.48;;;;;;;6.95;100.00;102837.34;693635;28;4907;-65
2023/02/13 01:19:00;;;;;;;15.17;9.57;;;;;;;6.98;100.00;102840.09;692693;28;1230;-66
2023/02/13 01:19:21;;;;;;;14.40;9.73;;;;;;;7.03;100.00;102842.91;689915;28;1178;-66
2023/02/13 01:19:41;;;;;;;14.97;9.63;;;;;;;7.01;100.00;102836.75;689659;28;1342;-65
2023/02/13 01:20:02;;;;;;;14.30;9.25;;;;;;;6.96;100.00;102827.03;689101;28;1305;-66
2023/02/13 01:20:23;;;;;;;13.20;8.93;;;;;;;7.00;100.00;102833.25;687050;28;6089;-65
2023/02/13 01:20:59;;;;;;;14.50;9.52;;;;;;;7.02;100.00;102829.00;689092;28;1270;-66
2023/02/13 01:21:22;;;;;;;13.50;9.30;;;;;;;7.02;100.00;102828.09;690503;28;4372;-65
2023/02/13 01:21:43;;;;;;;13.80;9.05;;;;;;;6.99;100.00;102831.47;695840;28;2017;-65
2023/02/13 01:22:03;;;;;;;14.27;9.60;;;;;;;7.00;100.00;102833.25;693291;28;1503;-65
2023/02/13 01:22:23;;;;;;;14.63;9.63;;;;;;;6.99;100.00;102828.84;692742;28;1390;-66
2023/02/13 01:22:44;;;;;;;14.35;9.48;;;;;;;6.98;100.00;102827.09;692860;28;1237;-66
2023/02/13 01:23:04;;;;;;;13.93;9.73;;;;;;;6.95;100.00;102829.53;690565;28;1363;-66
2023/02/13 01:23:29;;;;;;;14.48;9.32;;;;;;;6.95;100.00;102824.34;690384;28;1309;-65
2023/02/13 01:23:50;;;;;;;15.30;9.65;;;;;;;6.96;100.00;102828.72;688670;28;3784;-66
2023/02/13 01:24:13;;;;;;;13.85;9.70;;;;;;;7.04;100.00;102826.47;689472;28;1322;-66
2023/02/13 01:24:34;;;;;;;13.97;9.37;;;;;;;6.98;100.00;102825.38;687485;28;4394;-65
2023/02/13 01:24:54;;;;;;;14.17;9.60;;;;;;;6.91;100.00;102833.72;689627;28;1413;-67
2023/02/13 01:25:14;;;;;;;14.98;9.80;;;;;;;6.88;100.00;102827.50;691437;28;1563;-66
2023/02/13 01:25:41;;;;;;;15.03;9.77;;;;;;;6.86;100.00;102819.63;691947;28;1493;-65
2023/02/13 01:26:06;;;;;;;14.20;9.60;;;;;;;6.86;100.00;102834.34;694734;28;1281;-66
2023/02/13 01:26:27;;;;;;;14.00;9.43;;;;;;;6.89;100.00;102824.06;694970;28;1357;-66
2023/02/13 01:26:47;;;;;;;14.45;10.00;;;;;;;6.92;100.00;102822.53;693864;28;1317;-65
2023/02/13 01:27:07;;;;;;;14.40;9.93;;;;;;;7.01;100.00;102827.22;695129;28;1272;-66
2023/02/13 01:27:28;;;;;;;14.50;9.70;;;;;;;7.04;100.00;102824.75;692298;28;4338;-65
2023/02/13 01:27:48;;;;;;;15.00;9.47;;;;;;;7.04;100.00;102824.75;692294;28;1341;-66
2023/02/13 01:28:11;;;;;;;14.98;9.85;;;;;;;7.07;100.00;102824.88;693511;28;1271;-66
2023/02/13 01:28:31;;;;;;;15.10;9.80;;;;;;;7.12;100.00;102823.38;692754;28;1277;-66
2023/02/13 01:28:53;;;;;;;14.82;9.55;;;;;;;7.14;100.00;102826.97;692433;28;1050;-65
2023/02/13 01:29:14;;;;;;;14.13;9.57;;;;;;;7.13;100.00;102822.56;693959;28;1514;-67
2023/02/13 01:29:34;;;;;;;14.13;9.77;;;;;;;7.07;100.00;102818.81;693138;28;1486;-66
2023/02/13 01:29:55;;;;;;;14.55;9.43;;;;;;;7.08;100.00;102829.28;693251;28;1398;-66
2023/02/13 01:30:17;;;;;;;14.97;9.77;;;;;;;6.99;100.00;102824.56;692428;28;1206;-66
2023/02/13 01:30:37;;;;;;;14.85;9.75;;;;;;;6.98;100.00;102814.09;688836;28;4734;-66
2023/02/13 01:30:58;;;;;;;14.25;9.65;;;;;;;7.02;100.00;102826.41;688637;28;1366;-66
2023/02/13 01:31:18;;;;;;;14.60;9.43;;;;;;;6.99;100.00;102826.25;688993;28;1181;-66
2023/02/13 01:31:39;;;;;;;15.40;9.40;;;;;;;6.93;100.00;102823.41;692661;28;1919;-65
2023/02/13 01:32:01;;;;;;;15.32;9.73;;;;;;;6.94;100.00;102818.25;692302;28;1234;-66
2023/02/13 01:32:22;;;;;;;14.40;9.88;;;;;;;6.93;100.00;102828.59;693570;28;1313;-65
2023/02/13 01:32:44;;;;;;;13.73;9.20;;;;;;;6.96;100.00;102829.63;692947;28;1273;-66
2023/02/13 01:33:04;;;;;;;13.95;9.13;;;;;;;6.94;100.00;102813.06;694969;28;1169;-66
2023/02/13 01:33:28;;;;;;;14.18;9.10;;;;;;;6.91;100.00;102827.63;691805;28;4367;-66
2023/02/13 01:33:48;;;;;;;13.77;8.90;;;;;;;7.00;100.00;102822.84;692292;28;1321;-65
2023/02/13 01:34:09;;;;;;;13.95;9.32;;;;;;;7.02;100.00;102821.22;690601;28;1353;-65
2023/02/13 01:34:33;;;;;;;14.47;9.93;;;;;;;7.00;100.00;102825.44;689049;28;1506;-66
2023/02/13 01:34:53;;;;;;;15.00;9.45;;;;;;;6.99;100.00;102824.56;689727;28;1519;-66
2023/02/13 01:35:15;;;;;;;15.10;9.75;;;;;;;6.97;100.00;102823.59;689961;28;1246;-66
2023/02/13 01:35:38;;;;;;;14.00;9.20;;;;;;;7.05;100.00;102821.34;687973;28;1216;-66
2023/02/13 01:36:05;;;;;;;15.23;9.98;;;;;;;7.22;100.00;102823.81;688259;28;1279;-65
2023/02/13 01:36:26;;;;;;;14.15;9.93;;;;;;;7.25;100.00;102826.53;691231;28;4383;-65
2023/02/13 01:36:47;;;;;;;13.52;9.05;;;;;;;7.17;100.00;102826.19;694845;28;1427;-66
2023/02/13 01:37:08;;;;;;;13.70;9.20;;;;;;;7.13;100.00;102827.78;695786;28;1233;-65
2023/02/13 01:37:28;;;;;;;13.88;9.07;;;;;;;7.20;100.00;102826.34;694569;28;1349;-66
2023/02/13 01:37:49;;;;;;;13.77;8.70;;;;;;;7.12;100.00;102822.50;696841;28;1304;-65
2023/02/13 01:38:09;;;;;;;13.48;8.95;;;;;;;7.09;100.00;102824.94;693750;28;1381;-65
2023/02/13 01:38:29;;;;;;;13.50;8.83;;;;;;;7.03;100.00;102825.56;693936;28;1328;-65
2023/02/13 01:38:55;;;;;;;14.32;8.95;;;;;;;7.01;100.00;102828.94;694366;28;1273;-66